Time;durP1;ratioP1;P1;durP2;ratioP2;P2;SDS_P1;SDS_P2;PMS_P1;PMS_P2;Temp;Humidity;BMP_temperature;BMP_pressure;BME280_temperature;BME280_humidity;BME280_pressure;Samples;Min_cycle;Max_cycle;Signal;HPM_P1;HPM_P2
2024/01/03 00:01:35;;;;;;;0.65;0.65;;;;;;;2.78;100.00;94294.56;5006509;28;20196;-76
2024/01/03 00:04:02;;;;;;;8.60;4.00;;;;;;;2.96;100.00;94295.69;5001148;28;20215;-79
2024/01/03 00:06:33;;;;;;;6.90;3.85;;;;;;;2.67;100.00;94303.78;5000953;28;20233;-78
2024/01/03 00:09:00;;;;;;;7.65;3.92;;;;;;;2.91;100.00;94293.06;5000143;28;20252;-77
2024/01/03 00:11:30;;;;;;;7.85;4.45;;;;;;;3.03;100.00;94300.66;5005852;28;20209;-79
2024/01/03 00:14:22;;;;;;;1.33;1.23;;;;;;;3.31;100.00;94315.78;5001855;28;20213;-79
2024/01/03 00:16:49;;;;;;;0.20;0.20;;;;;;;3.36;100.00;94310.38;5000103;28;20205;-77
2024/01/03 00:19:20;;;;;;;0.28;0.28;;;;;;;3.55;100.00;94308.47;5002819;28;20216;-77
2024/01/03 00:21:48;;;;;;;0.68;0.68;;;;;;;3.56;100.00;94319.97;5000584;28;20746;-77
2024/01/03 00:24:18;;;;;;;1.33;1.25;;;;;;;3.64;100.00;94300.56;5002170;28;20200;-78
2024/01/03 00:26:45;;;;;;;1.38;0.68;;;;;;;3.63;100.00;94314.25;4996982;28;20237;-78
2024/01/03 00:29:53;;;;;;;3.30;1.17;;;;;;;3.45;100.00;94297.13;4998131;28;20208;-79
2024/01/03 00:32:23;;;;;;;1.23;1.23;;;;;;;3.42;100.00;94298.47;4986408;28;20201;-77
2024/01/03 00:34:51;;;;;;;0.65;0.65;;;;;;;3.26;100.00;94289.09;4998268;28;20227;-78
2024/01/03 00:37:29;;;;;;;0.45;0.45;;;;;;;3.25;100.00;94298.22;4998586;28;21319;-78
2024/01/03 00:39:57;;;;;;;0.60;0.60;;;;;;;3.18;100.00;94308.47;4999345;28;20213;-77
2024/01/03 00:42:24;;;;;;;7.38;1.98;;;;;;;3.20;100.00;94306.31;4997524;28;20574;-78
2024/01/03 00:44:51;;;;;;;0.60;0.60;;;;;;;3.12;100.00;94298.94;4998235;28;20569;-77
2024/01/03 00:47:22;;;;;;;0.98;0.95;;;;;;;3.13;100.00;94300.53;4995408;28;20221;-76
2024/01/03 00:49:49;;;;;;;0.20;0.20;;;;;;;2.84;100.00;94281.94;4997539;28;20345;-76
2024/01/03 00:52:17;;;;;;;4.57;1.42;;;;;;;2.98;100.00;94292.72;4997211;28;20578;-77
2024/01/03 00:54:46;;;;;;;0.47;0.47;;;;;;;3.04;100.00;94295.03;5000427;28;20602;-76
2024/01/03 00:57:14;;;;;;;1.98;1.20;;;;;;;3.28;100.00;94297.63;4997568;28;20283;-78
2024/01/03 00:59:40;;;;;;;0.20;0.20;;;;;;;2.99;100.00;94283.59;4997329;28;20606;-79
2024/01/03 01:02:08;;;;;;;0.45;0.45;;;;;;;3.30;100.00;94292.78;5002265;28;20699;-78
2024/01/03 01:04:39;;;;;;;2.45;2.25;;;;;;;3.42;100.00;94301.16;5004997;28;20209;-77
2024/01/03 01:07:06;;;;;;;7.03;3.60;;;;;;;3.64;100.00;94299.78;5002938;28;20573;-77
2024/01/03 01:09:33;;;;;;;6.50;3.80;;;;;;;3.62;100.00;94302.75;4996933;28;20210;-77
2024/01/03 01:11:59;;;;;;;5.00;3.28;;;;;;;3.49;100.00;94304.28;4997565;28;20680;-75
2024/01/03 01:14:26;;;;;;;8.38;3.67;;;;;;;3.62;100.00;94291.25;4998711;28;20205;-75
2024/01/03 01:16:53;;;;;;;0.30;0.30;;;;;;;3.36;100.00;94294.31;5002471;28;20205;-75
2024/01/03 01:19:20;;;;;;;0.65;0.65;;;;;;;3.06;100.00;94290.19;5002176;28;20304;-75
2024/01/03 01:21:48;;;;;;;0.25;0.25;;;;;;;3.27;100.00;94288.03;5004167;28;20205;-75
2024/01/03 01:24:15;;;;;;;0.60;0.60;;;;;;;3.52;100.00;94276.94;5002182;28;20564;-76
2024/01/03 01:26:42;;;;;;;1.08;0.57;;;;;;;3.69;100.00;94286.31;5007816;28;20621;-74
2024/01/03 01:29:09;;;;;;;0.22;0.22;;;;;;;3.58;100.00;94285.66;5000753;28;20232;-75
2024/01/03 01:31:36;;;;;;;2.38;1.80;;;;;;;3.17;100.00;94280.13;5009481;28;20217;-73
2024/01/03 01:34:03;;;;;;;0.22;0.22;;;;;;;3.46;100.00;94267.38;5007077;28;20648;-74
2024/01/03 01:36:29;;;;;;;0.20;0.20;;;;;;;3.38;100.00;94254.66;5006235;28;20202;-76
2024/01/03 01:38:58;;;;;;;0.20;0.20;;;;;;;3.55;100.00;94265.63;5003505;28;20202;-74
2024/01/03 01:41:24;;;;;;;8.98;0.82;;;;;;;3.85;100.00;94266.19;5006320;28;20209;-73
2024/01/03 01:43:51;;;;;;;0.30;0.30;;;;;;;3.57;100.00;94270.69;5004795;28;20225;-76
2024/01/03 01:46:19;;;;;;;0.55;0.52;;;;;;;3.19;100.00;94272.59;5003095;28;20260;-75
2024/01/03 01:48:47;;;;;;;1.75;1.40;;;;;;;3.52;100.00;94282.28;5003764;28;20228;-76
2024/01/03 01:51:15;;;;;;;0.98;0.98;;;;;;;3.20;100.00;94252.78;5006588;28;20282;-74
2024/01/03 01:53:42;;;;;;;1.20;1.20;;;;;;;3.37;100.00;94263.78;5006022;28;20756;-75
2024/01/03 01:56:11;;;;;;;1.17;0.90;;;;;;;3.34;100.00;94272.38;5003042;28;20356;-76
2024/01/03 01:58:40;;;;;;;1.75;1.30;;;;;;;3.50;100.00;94263.03;5002767;28;20292;-77
2024/01/03 02:01:07;;;;;;;0.47;0.47;;;;;;;3.53;100.00;94259.78;5003888;28;20275;-74
2024/01/03 02:03:36;;;;;;;1.52;1.40;;;;;;;3.58;100.00;94265.03;5003467;28;20209;-75
2024/01/03 02:06:04;;;;;;;0.82;0.82;;;;;;;3.69;100.00;94262.97;5002996;28;20202;-75
2024/01/03 02:08:33;;;;;;;0.22;0.22;;;;;;;3.85;100.00;94274.25;5003980;28;20225;-74
2024/01/03 02:11:00;;;;;;;0.20;0.20;;;;;;;3.88;100.00;94273.66;5003865;28;20299;-76
2024/01/03 02:13:28;;;;;;;1.67;1.17;;;;;;;3.55;100.00;94268.28;5006407;28;20207;-75
2024/01/03 02:15:55;;;;;;;0.43;0.35;;;;;;;3.77;100.00;94277.59;5002080;28;20209;-77
2024/01/03 02:18:22;;;;;;;1.00;0.77;;;;;;;3.78;100.00;94279.19;5003131;28;20202;-77
2024/01/03 02:20:49;;;;;;;0.30;0.30;;;;;;;3.89;100.00;94276.03;5002700;28;20588;-72
2024/01/03 02:23:17;;;;;;;1.95;0.68;;;;;;;3.63;100.00;94268.72;5001408;28;20206;-72
2024/01/03 02:25:44;;;;;;;1.20;1.10;;;;;;;3.99;100.00;94268.91;5000587;28;20658;-72
2024/01/03 02:28:11;;;;;;;0.95;0.90;;;;;;;4.07;100.00;94252.16;5003743;28;20232;-73
2024/01/03 02:30:41;;;;;;;0.20;0.20;;;;;;;3.98;100.00;94257.41;5000768;28;20558;-72
2024/01/03 02:33:08;;;;;;;0.35;0.30;;;;;;;3.99;100.00;94247.47;5001378;28;20405;-73
2024/01/03 02:35:35;;;;;;;0.30;0.30;;;;;;;3.79;100.00;94249.44;5001713;28;20213;-74
2024/01/03 02:38:01;;;;;;;0.30;0.30;;;;;;;3.68;100.00;94265.97;5013317;28;20301;-73
2024/01/03 02:40:30;;;;;;;0.40;0.40;;;;;;;3.66;100.00;94244.03;4999925;28;20216;-73
2024/01/03 02:42:56;;;;;;;0.60;0.60;;;;;;;3.79;100.00;94264.72;5009608;28;20205;-74
2024/01/03 02:45:23;;;;;;;1.30;1.20;;;;;;;3.97;100.00;94250.44;5010705;28;20232;-75
2024/01/03 02:47:50;;;;;;;0.40;0.40;;;;;;;3.83;100.00;94257.66;5006115;28;20686;-72
2024/01/03 02:50:17;;;;;;;0.45;0.45;;;;;;;3.71;100.00;94235.91;5001887;28;20580;-74
2024/01/03 02:52:44;;;;;;;0.75;0.75;;;;;;;3.74;100.00;94238.00;5006035;28;20295;-71
2024/01/03 02:55:10;;;;;;;3.75;0.95;;;;;;;3.82;100.00;94218.59;5003577;28;20201;-72
2024/01/03 02:57:39;;;;;;;0.40;0.40;;;;;;;3.83;100.00;94217.47;5004076;28;20240;-74
2024/01/03 03:00:10;;;;;;;0.20;0.20;;;;;;;3.84;100.00;94213.72;5002752;28;20224;-74
2024/01/03 03:02:37;;;;;;;0.20;0.20;;;;;;;3.76;100.00;94206.38;5002252;28;20209;-73
2024/01/03 03:05:04;;;;;;;1.48;0.75;;;;;;;3.85;100.00;94231.38;5002169;28;20201;-71
2024/01/03 03:07:31;;;;;;;0.20;0.20;;;;;;;3.60;100.00;94197.00;5003870;28;20208;-73
2024/01/03 03:09:57;;;;;;;0.20;0.20;;;;;;;3.76;100.00;94212.53;5010262;28;20201;-73
2024/01/03 03:12:24;;;;;;;0.85;0.85;;;;;;;3.96;100.00;94215.94;5006759;28;20586;-72
2024/01/03 03:14:52;;;;;;;0.70;0.70;;;;;;;4.05;100.00;94220.31;5002254;28;20215;-71
2024/01/03 03:17:19;;;;;;;4.05;1.25;;;;;;;4.17;100.00;94212.56;5008907;28;20216;-71
2024/01/03 03:19:46;;;;;;;1.45;1.35;;;;;;;4.20;100.00;94217.34;5005240;28;20697;-71
2024/01/03 03:22:13;;;;;;;0.60;0.60;;;;;;;4.43;100.00;94217.44;5002098;28;20214;-72
2024/01/03 03:24:40;;;;;;;0.30;0.30;;;;;;;4.45;100.00;94223.28;5001539;28;20201;-73
2024/01/03 03:27:07;;;;;;;1.80;1.42;;;;;;;4.26;100.00;94210.78;5000323;28;20209;-72
2024/01/03 03:29:34;;;;;;;0.50;0.50;;;;;;;4.28;100.00;94213.97;5001708;28;20242;-72
2024/01/03 03:32:02;;;;;;;0.20;0.20;;;;;;;4.43;100.00;94204.81;5002167;28;20546;-72
2024/01/03 03:34:28;;;;;;;0.88;0.88;;;;;;;4.38;100.00;94179.97;5000736;28;20201;-72
2024/01/03 03:36:55;;;;;;;1.45;0.55;;;;;;;4.44;100.00;94201.03;5000197;28;20546;-73
2024/01/03 03:39:22;;;;;;;1.35;1.00;;;;;;;4.53;100.00;94199.22;5003984;28;20205;-73
2024/01/03 03:41:49;;;;;;;0.55;0.55;;;;;;;4.45;100.00;94202.63;4999925;28;20295;-71
2024/01/03 03:44:16;;;;;;;0.50;0.50;;;;;;;4.11;100.00;94170.84;5000603;28;20212;-71
2024/01/03 03:46:42;;;;;;;0.90;0.65;;;;;;;4.31;100.00;94184.97;5001669;28;20573;-73
2024/01/03 03:49:11;;;;;;;0.65;0.65;;;;;;;4.13;100.00;94189.31;5001630;28;20230;-70
2024/01/03 03:51:37;;;;;;;0.43;0.43;;;;;;;4.22;100.00;94188.34;5002407;28;20239;-71
2024/01/03 03:54:04;;;;;;;0.52;0.50;;;;;;;4.35;100.00;94185.97;5003115;28;20196;-71
2024/01/03 03:56:31;;;;;;;2.47;1.70;;;;;;;4.16;100.00;94168.09;5000242;28;20643;-71
2024/01/03 03:58:58;;;;;;;0.20;0.20;;;;;;;4.54;100.00;94174.00;5001955;28;20742;-70
2024/01/03 04:01:26;;;;;;;1.40;1.20;;;;;;;4.47;100.00;94157.53;4997737;28;20263;-76
2024/01/03 04:03:53;;;;;;;0.30;0.30;;;;;;;4.53;100.00;94166.25;5007561;28;20193;-73
2024/01/03 04:06:21;;;;;;;0.35;0.35;;;;;;;4.62;100.00;94191.28;4995369;28;20209;-71
2024/01/03 04:08:49;;;;;;;0.30;0.30;;;;;;;4.59;100.00;94179.28;5010639;28;20584;-73
2024/01/03 04:11:16;;;;;;;0.20;0.20;;;;;;;4.21;100.00;94186.75;5001337;28;20201;-73
2024/01/03 04:13:42;;;;;;;0.20;0.20;;;;;;;4.05;100.00;94182.00;5001822;28;20208;-74
2024/01/03 04:16:10;;;;;;;0.38;0.38;;;;;;;4.19;100.00;94178.22;5011479;28;20213;-75
2024/01/03 04:18:37;;;;;;;0.63;0.63;;;;;;;4.28;100.00;94179.09;5011571;28;20669;-73
2024/01/03 04:21:07;;;;;;;2.85;1.48;;;;;;;4.05;100.00;94182.00;5011205;28;20574;-72
2024/01/03 04:23:36;;;;;;;0.80;0.70;;;;;;;4.02;100.00;94193.31;5011708;28;20560;-72
2024/01/03 04:26:03;;;;;;;0.40;0.40;;;;;;;4.08;100.00;94200.97;5010753;28;20267;-73
2024/01/03 04:28:29;;;;;;;0.70;0.70;;;;;;;4.34;100.00;94189.75;5010993;28;20247;-74
2024/01/03 04:30:56;;;;;;;0.63;0.63;;;;;;;5.82;100.00;94179.88;4995269;28;20206;-72
2024/01/03 04:33:23;;;;;;;3.13;2.28;;;;;;;9.87;100.00;94182.44;4991801;28;20218;-75
2024/01/03 04:35:50;;;;;;;4.57;2.10;;;;;;;8.88;100.00;94192.31;5006262;28;20216;-73
2024/01/03 04:38:17;;;;;;;1.02;1.02;;;;;;;8.11;100.00;94183.44;4997067;28;20208;-72
2024/01/03 04:40:45;;;;;;;1.23;1.13;;;;;;;6.63;100.00;94205.38;4997060;28;20228;-74
2024/01/03 04:43:12;;;;;;;0.93;0.82;;;;;;;5.79;100.00;94207.34;5002597;28;20269;-75
2024/01/03 04:45:39;;;;;;;0.45;0.45;;;;;;;5.69;100.00;94203.03;5002315;28;20233;-76
2024/01/03 04:48:07;;;;;;;0.55;0.55;;;;;;;5.40;100.00;94203.47;5007722;28;20205;-76
2024/01/03 04:50:34;;;;;;;0.60;0.60;;;;;;;5.08;100.00;94203.69;4994824;28;20214;-75
2024/01/03 04:53:01;;;;;;;0.40;0.40;;;;;;;5.04;100.00;94197.34;5014788;28;20201;-76
2024/01/03 04:55:27;;;;;;;0.90;0.90;;;;;;;5.06;100.00;94192.50;5004791;28;20688;-76
2024/01/03 04:57:56;;;;;;;0.30;0.30;;;;;;;4.91;100.00;94196.31;5013882;28;20232;-76
2024/01/03 05:00:23;;;;;;;0.60;0.60;;;;;;;4.62;100.00;94202.03;5015797;28;20669;-76
2024/01/03 05:02:49;;;;;;;3.13;2.92;;;;;;;4.47;100.00;94194.28;5000585;28;20213;-76
2024/01/03 05:05:16;;;;;;;0.50;0.50;;;;;;;4.57;100.00;94199.44;4995877;28;20221;-76
2024/01/03 05:07:43;;;;;;;0.50;0.50;;;;;;;4.43;100.00;94209.38;4995041;28;20214;-75
2024/01/03 05:10:10;;;;;;;0.95;0.93;;;;;;;4.32;100.00;94195.41;5009725;28;20249;-75
2024/01/03 05:12:38;;;;;;;0.28;0.28;;;;;;;4.21;100.00;94191.34;5014521;28;20201;-76
2024/01/03 05:15:08;;;;;;;0.50;0.50;;;;;;;4.25;100.00;94197.66;5014945;28;20624;-75
2024/01/03 05:17:35;;;;;;;0.30;0.30;;;;;;;4.37;100.00;94189.16;5013956;28;20209;-76
2024/01/03 05:20:02;;;;;;;0.20;0.20;;;;;;;4.00;100.00;94185.56;5014408;28;20212;-75
2024/01/03 05:22:28;;;;;;;0.20;0.20;;;;;;;4.12;100.00;94185.84;5014049;28;20263;-74
2024/01/03 05:24:55;;;;;;;1.73;1.27;;;;;;;4.00;100.00;94190.91;5014259;28;20295;-74
2024/01/03 05:27:23;;;;;;;1.10;0.75;;;;;;;4.13;100.00;94184.75;5013967;28;20209;-75
2024/01/03 05:29:50;;;;;;;8.95;0.93;;;;;;;4.34;100.00;94190.53;5014197;28;20225;-76
2024/01/03 05:32:18;;;;;;;0.20;0.20;;;;;;;4.43;100.00;94182.56;5013048;28;20212;-77
2024/01/03 05:34:45;;;;;;;0.47;0.47;;;;;;;4.19;100.00;94183.59;4992269;28;20301;-75
2024/01/03 05:37:12;;;;;;;0.20;0.20;;;;;;;4.20;100.00;94185.19;4993513;28;20221;-76
2024/01/03 05:39:39;;;;;;;0.28;0.28;;;;;;;4.20;100.00;94190.53;5000927;28;20260;-75
2024/01/03 05:42:08;;;;;;;1.20;1.17;;;;;;;4.14;100.00;94207.00;5007105;28;20620;-75
2024/01/03 05:44:34;;;;;;;1.20;1.10;;;;;;;4.01;100.00;94211.25;5014355;28;20208;-75
2024/01/03 05:47:02;;;;;;;0.60;0.60;;;;;;;4.10;100.00;94206.78;5000351;28;20572;-75
2024/01/03 05:49:31;;;;;;;0.20;0.20;;;;;;;4.25;100.00;94198.47;4994866;28;20312;-73
2024/01/03 05:51:59;;;;;;;0.40;0.40;;;;;;;3.55;100.00;94200.59;5010707;28;20204;-73
2024/01/03 05:54:27;;;;;;;0.73;0.73;;;;;;;3.50;100.00;94200.66;5003624;28;20259;-74
2024/01/03 05:56:54;;;;;;;0.35;0.35;;;;;;;3.65;100.00;94205.75;4997827;28;20241;-73
2024/01/03 05:59:21;;;;;;;0.82;0.82;;;;;;;3.76;100.00;94201.00;5004091;28;20239;-73
2024/01/03 06:01:48;;;;;;;18.70;11.10;;;;;;;3.35;100.00;94209.72;5002906;28;20217;-74
2024/01/03 06:04:15;;;;;;;0.20;0.20;;;;;;;3.28;100.00;94217.31;5001228;28;20201;-73
2024/01/03 06:06:44;;;;;;;1.40;1.17;;;;;;;3.40;100.00;94215.03;5010730;28;20205;-75
2024/01/03 06:09:11;;;;;;;1.60;1.50;;;;;;;3.16;100.00;94203.59;5004575;28;20288;-73
2024/01/03 06:11:38;;;;;;;8.32;5.20;;;;;;;3.22;100.00;94207.81;5008003;28;20594;-73
2024/01/03 06:14:05;;;;;;;10.77;5.38;;;;;;;3.35;100.00;94207.06;5005135;28;20202;-75
2024/01/03 06:16:32;;;;;;;9.05;5.35;;;;;;;3.32;100.00;94207.63;5002271;28;20292;-72
2024/01/03 06:18:59;;;;;;;9.00;4.10;;;;;;;3.50;100.00;94203.34;5007148;28;20553;-75
2024/01/03 06:21:26;;;;;;;8.23;3.97;;;;;;;3.71;100.00;94209.13;5007598;28;20201;-74
2024/01/03 06:23:54;;;;;;;12.50;4.75;;;;;;;3.83;100.00;94196.03;5007468;28;20319;-74
2024/01/03 06:26:23;;;;;;;9.85;3.97;;;;;;;3.88;100.00;94209.38;5013279;28;20646;-73
2024/01/03 06:28:50;;;;;;;10.93;3.97;;;;;;;3.67;100.00;94205.47;5013006;28;20589;-73
2024/01/03 06:31:21;;;;;;;8.88;4.70;;;;;;;3.86;100.00;94203.50;4993692;28;20214;-73
2024/01/03 06:33:48;;;;;;;8.35;4.03;;;;;;;4.00;100.00;94207.00;4993851;28;20691;-75
2024/01/03 06:36:15;;;;;;;4.55;3.42;;;;;;;3.90;100.00;94217.91;4995728;28;20558;-72
2024/01/03 06:38:42;;;;;;;6.57;3.50;;;;;;;3.84;100.00;94186.91;5010260;28;20216;-71
2024/01/03 06:41:10;;;;;;;5.75;3.65;;;;;;;4.02;100.00;94178.00;5012975;28;20617;-74
2024/01/03 06:43:37;;;;;;;9.98;3.92;;;;;;;4.15;100.00;94182.59;4998940;28;20217;-73
2024/01/03 06:46:05;;;;;;;5.38;3.55;;;;;;;4.31;100.00;94190.31;4994731;28;20216;-72
2024/01/03 06:48:32;;;;;;;7.97;4.38;;;;;;;4.49;100.00;94182.19;5013000;28;20582;-74
2024/01/03 06:51:02;;;;;;;7.45;3.55;;;;;;;4.43;100.00;94182.56;5012954;28;20211;-74
2024/01/03 06:53:29;;;;;;;0.20;0.20;;;;;;;4.59;100.00;94194.56;5012293;28;20217;-74
2024/01/03 06:55:55;;;;;;;0.35;0.35;;;;;;;4.53;100.00;94182.34;5004429;28;20240;-74
2024/01/03 06:58:24;;;;;;;0.20;0.20;;;;;;;4.31;100.00;94190.31;4993030;28;20237;-74
2024/01/03 07:00:51;;;;;;;0.20;0.20;;;;;;;4.48;100.00;94185.16;5001537;28;20204;-73
2024/01/03 07:03:18;;;;;;;0.70;0.70;;;;;;;4.35;100.00;94181.41;5013644;28;20209;-75
2024/01/03 07:05:44;;;;;;;0.60;0.60;;;;;;;4.09;100.00;94194.50;5012339;28;20304;-74
2024/01/03 07:08:11;;;;;;;0.70;0.70;;;;;;;3.91;100.00;94192.69;5012241;28;20205;-74
2024/01/03 07:10:38;;;;;;;0.40;0.40;;;;;;;4.20;100.00;94185.19;5012645;28;20255;-75
2024/01/03 07:13:05;;;;;;;5.18;0.85;;;;;;;4.60;100.00;94180.88;5011953;28;20245;-73
2024/01/03 07:15:33;;;;;;;0.20;0.20;;;;;;;4.42;100.00;94172.94;5003691;28;20224;-73
2024/01/03 07:18:01;;;;;;;0.35;0.35;;;;;;;4.51;100.00;94184.56;5012192;28;20217;-74
2024/01/03 07:20:28;;;;;;;1.13;1.05;;;;;;;4.72;100.00;94172.28;5010860;28;20320;-73
2024/01/03 07:22:56;;;;;;;0.20;0.20;;;;;;;4.64;100.00;94186.44;5008229;28;20210;-72
2024/01/03 07:25:23;;;;;;;0.22;0.22;;;;;;;4.51;100.00;94201.41;4993068;28;20210;-73
2024/01/03 07:27:50;;;;;;;0.20;0.20;;;;;;;4.71;100.00;94210.94;4992378;28;20312;-73
2024/01/03 07:30:17;;;;;;;1.50;0.85;;;;;;;4.77;100.00;94199.03;4992709;28;20571;-73
2024/01/03 07:32:45;;;;;;;1.15;1.15;;;;;;;4.96;100.00;94213.06;4992753;28;20667;-74
2024/01/03 07:35:12;;;;;;;2.00;1.70;;;;;;;5.17;100.00;94185.78;4991897;28;20209;-75
2024/01/03 07:37:39;;;;;;;0.30;0.30;;;;;;;5.13;100.00;94182.91;5000313;28;20255;-73
2024/01/03 07:40:08;;;;;;;0.57;0.57;;;;;;;5.34;100.00;94185.88;5001298;28;20205;-73
2024/01/03 07:42:34;;;;;;;0.30;0.30;;;;;;;5.34;100.00;94202.00;4997227;28;20740;-74
2024/01/03 07:45:02;;;;;;;2.58;1.05;;;;;;;5.51;100.00;94196.75;5012015;28;20689;-74
2024/01/03 07:47:29;;;;;;;0.43;0.43;;;;;;;5.49;100.00;94192.78;4998850;28;20209;-72
2024/01/03 07:49:58;;;;;;;0.47;0.47;;;;;;;5.52;100.00;94195.66;5011745;28;20284;-74
2024/01/03 07:52:25;;;;;;;1.08;1.05;;;;;;;5.71;100.00;94185.50;5011982;28;20213;-73
2024/01/03 07:54:50;;;;;;;1.90;0.70;;;;;;;5.71;100.00;94185.50;4999042;28;20313;-74
2024/01/03 07:57:17;;;;;;;0.57;0.57;;;;;;;5.71;100.00;94188.19;4991827;28;20694;-73
2024/01/03 07:59:45;;;;;;;3.17;1.17;;;;;;;5.65;100.00;94175.19;5004540;28;20688;-74
2024/01/03 08:02:12;;;;;;;0.30;0.30;;;;;;;5.43;100.00;94188.66;5001943;28;20573;-73
2024/01/03 08:04:40;;;;;;;1.10;0.73;;;;;;;5.77;100.00;94182.69;5011899;28;20271;-73
2024/01/03 08:07:08;;;;;;;0.60;0.60;;;;;;;5.57;100.00;94160.63;5005479;28;20241;-74
2024/01/03 08:09:37;;;;;;;0.20;0.20;;;;;;;5.89;100.00;94180.25;4991894;28;20229;-73
2024/01/03 08:12:04;;;;;;;0.43;0.43;;;;;;;5.59;100.00;94154.94;4999146;28;20232;-74
2024/01/03 08:14:31;;;;;;;0.20;0.20;;;;;;;5.88;100.00;94157.13;5011070;28;20640;-74
2024/01/03 08:16:58;;;;;;;1.00;1.00;;;;;;;6.18;100.00;94166.28;5007503;28;20219;-72
2024/01/03 08:19:25;;;;;;;0.65;0.65;;;;;;;6.39;100.00;94173.50;5010984;28;20223;-74
2024/01/03 08:21:52;;;;;;;0.20;0.20;;;;;;;6.66;100.00;94174.34;4991687;28;20224;-73
2024/01/03 08:24:20;;;;;;;1.20;1.13;;;;;;;6.28;100.00;94176.78;5004949;28;20232;-73
2024/01/03 08:26:47;;;;;;;0.40;0.40;;;;;;;6.52;100.00;94165.63;4999149;28;20220;-74
2024/01/03 08:29:15;;;;;;;0.47;0.47;;;;;;;6.50;100.00;94174.00;5009601;28;20300;-73
2024/01/03 08:31:42;;;;;;;0.17;0.17;;;;;;;6.57;100.00;94168.16;5005231;28;20213;-74
2024/01/03 08:34:08;;;;;;;0.43;0.43;;;;;;;6.82;100.00;94158.56;5011124;28;20211;-74
2024/01/03 08:36:42;;;;;;;0.40;0.40;;;;;;;7.11;100.00;94151.41;5011536;28;20613;-73
2024/01/03 08:39:10;;;;;;;0.70;0.70;;;;;;;7.23;100.00;94155.41;5008282;28;20214;-74
2024/01/03 08:41:38;;;;;;;0.63;0.63;;;;;;;6.95;100.00;94147.63;4991896;28;20217;-74
2024/01/03 08:44:06;;;;;;;0.35;0.35;;;;;;;6.50;100.00;94163.25;4991593;28;20594;-73
2024/01/03 08:46:34;;;;;;;0.65;0.65;;;;;;;6.38;100.00;94154.97;4991959;28;21017;-73
2024/01/03 08:49:04;;;;;;;0.90;0.90;;;;;;;6.15;100.00;94140.81;5005142;28;20244;-73
2024/01/03 08:51:31;;;;;;;0.22;0.22;;;;;;;6.20;100.00;94154.13;5011284;28;20229;-73
2024/01/03 08:53:58;;;;;;;6.50;1.05;;;;;;;6.35;100.00;94144.84;5010936;28;20212;-73
2024/01/03 08:56:25;;;;;;;5.18;1.42;;;;;;;6.07;100.00;94136.22;4999047;28;20233;-72
2024/01/03 08:58:53;;;;;;;1.38;1.33;;;;;;;5.82;100.00;94136.88;4991177;28;20614;-73
2024/01/03 09:01:22;;;;;;;0.55;0.55;;;;;;;5.76;100.00;94116.59;4993742;28;20213;-73
2024/01/03 09:03:50;;;;;;;0.38;0.38;;;;;;;5.83;100.00;94111.59;5005148;28;20206;-72
2024/01/03 09:06:21;;;;;;;0.57;0.57;;;;;;;5.81;100.00;94109.19;5001128;28;20205;-72
2024/01/03 09:08:50;;;;;;;2.58;1.75;;;;;;;5.79;100.00;94122.16;5011182;28;20602;-72
2024/01/03 09:11:18;;;;;;;0.65;0.65;;;;;;;6.17;100.00;94121.69;5010472;28;20228;-73
2024/01/03 09:13:49;;;;;;;0.20;0.20;;;;;;;6.28;100.00;94113.03;5010764;28;20209;-73
2024/01/03 09:16:19;;;;;;;0.73;0.73;;;;;;;6.29;100.00;94117.28;5010719;28;20224;-74
2024/01/03 09:18:46;;;;;;;1.20;1.15;;;;;;;6.19;100.00;94114.91;5010558;28;20213;-73
2024/01/03 09:21:14;;;;;;;1.08;0.95;;;;;;;6.15;100.00;94108.53;5010674;28;20636;-76
2024/01/03 09:23:41;;;;;;;0.98;0.50;;;;;;;6.10;100.00;94108.72;5011156;28;20513;-74
2024/01/03 09:26:10;;;;;;;1.20;1.13;;;;;;;6.12;100.00;94114.56;5011102;28;20609;-75
2024/01/03 09:28:38;;;;;;;0.60;0.60;;;;;;;6.16;100.00;94115.50;5011127;28;20707;-75
2024/01/03 09:31:05;;;;;;;1.30;1.27;;;;;;;6.50;100.00;94124.78;5010868;28;20640;-76
2024/01/03 09:33:34;;;;;;;1.48;0.90;;;;;;;6.51;100.00;94115.59;5010934;28;20217;-76
2024/01/03 09:36:01;;;;;;;4.35;1.38;;;;;;;6.93;100.00;94122.94;4994071;28;20210;-76
2024/01/03 09:38:29;;;;;;;0.63;0.63;;;;;;;7.01;100.00;94108.66;4994711;28;20551;-76
2024/01/03 09:40:57;;;;;;;15.55;1.48;;;;;;;7.11;100.00;94124.47;5007803;28;20292;-76
2024/01/03 09:43:25;;;;;;;0.60;0.60;;;;;;;7.13;100.00;94108.81;4994847;28;20206;-76
2024/01/03 09:45:52;;;;;;;0.73;0.70;;;;;;;6.59;100.00;94112.13;4994728;28;20216;-76
2024/01/03 09:48:19;;;;;;;0.43;0.43;;;;;;;6.51;100.00;94102.94;4994809;28;20614;-75
2024/01/03 09:50:49;;;;;;;0.22;0.22;;;;;;;6.47;100.00;94103.88;5013044;28;20243;-76
2024/01/03 09:53:17;;;;;;;1.00;1.00;;;;;;;6.33;100.00;94099.44;5014087;28;20209;-76
2024/01/03 09:55:44;;;;;;;0.55;0.55;;;;;;;6.62;100.00;94116.88;5014144;28;20229;-76
2024/01/03 09:58:11;;;;;;;0.60;0.60;;;;;;;6.71;100.00;94112.28;5001123;28;20238;-75
2024/01/03 10:00:38;;;;;;;0.73;0.73;;;;;;;6.67;100.00;94103.28;5014214;28;20205;-76
2024/01/03 10:03:07;;;;;;;1.02;0.77;;;;;;;6.61;100.00;94104.53;4997464;28;20229;-75
2024/01/03 10:05:34;;;;;;;0.80;0.80;;;;;;;6.58;100.00;94102.47;4995061;28;20272;-76
2024/01/03 10:08:15;;;;;;;0.50;0.50;;;;;;;6.64;100.00;94110.09;4994730;28;20210;-76
2024/01/03 10:10:44;;;;;;;1.13;0.60;;;;;;;6.97;100.00;94102.31;4995064;28;20224;-76
2024/01/03 10:13:16;;;;;;;1.40;1.30;;;;;;;7.18;100.00;94090.91;4994412;28;20237;-77
2024/01/03 10:15:44;;;;;;;0.73;0.73;;;;;;;6.95;100.00;94088.41;5001297;28;20213;-77
2024/01/03 10:18:13;;;;;;;0.52;0.52;;;;;;;6.78;100.00;94093.78;4994569;28;20252;-76
2024/01/03 10:20:40;;;;;;;0.52;0.52;;;;;;;6.73;100.00;94075.88;4994483;28;20570;-75
2024/01/03 10:23:10;;;;;;;0.73;0.73;;;;;;;6.72;100.00;94095.03;4994211;28;20209;-74
2024/01/03 10:25:38;;;;;;;0.50;0.50;;;;;;;6.67;100.00;94071.78;4994153;28;20205;-75
2024/01/03 10:28:06;;;;;;;0.40;0.40;;;;;;;6.79;100.00;94079.22;4993868;28;20208;-75
2024/01/03 10:30:34;;;;;;;0.20;0.20;;;;;;;6.84;100.00;94070.16;4994465;28;20240;-77
2024/01/03 10:33:02;;;;;;;1.65;0.82;;;;;;;6.66;100.00;94059.44;5000792;28;20588;-77
2024/01/03 10:35:30;;;;;;;0.75;0.75;;;;;;;6.62;100.00;94071.94;5013869;28;20212;-77
2024/01/03 10:37:59;;;;;;;1.15;1.10;;;;;;;6.37;100.00;94051.97;5013799;28;20208;-77
2024/01/03 10:40:29;;;;;;;0.43;0.43;;;;;;;6.17;100.00;94049.88;5013520;28;20299;-77
2024/01/03 10:42:56;;;;;;;0.73;0.73;;;;;;;6.30;100.00;94040.88;5013623;28;20209;-76
2024/01/03 10:45:23;;;;;;;0.50;0.50;;;;;;;6.13;100.00;94040.88;5013926;28;20221;-76
2024/01/03 10:47:51;;;;;;;0.30;0.30;;;;;;;6.26;100.00;94042.63;5014480;28;20209;-77
2024/01/03 10:50:18;;;;;;;0.47;0.47;;;;;;;6.32;100.00;94035.97;4998518;28;20592;-76
2024/01/03 10:52:46;;;;;;;1.67;0.68;;;;;;;6.39;100.00;94036.31;5009870;28;20208;-77
2024/01/03 10:55:20;;;;;;;0.60;0.60;;;;;;;6.50;100.00;94038.69;5010917;28;20208;-78
2024/01/03 10:57:58;;;;;;;0.50;0.50;;;;;;;6.53;100.00;94027.31;4994814;28;20243;-76
2024/01/03 11:00:36;;;;;;;0.65;0.65;;;;;;;6.46;100.00;94021.59;5007286;28;20233;-77
2024/01/03 11:03:13;;;;;;;0.20;0.20;;;;;;;6.38;100.00;94021.28;5009270;28;20220;-75
2024/01/03 11:05:54;;;;;;;0.50;0.50;;;;;;;6.65;100.00;94025.56;4993768;28;20205;-77
2024/01/03 11:08:24;;;;;;;0.60;0.60;;;;;;;6.51;100.00;93997.22;4993700;28;20215;-76
2024/01/03 11:10:53;;;;;;;1.55;1.55;;;;;;;6.54;100.00;94018.13;5004920;28;20596;-76
2024/01/03 11:13:29;;;;;;;0.57;0.57;;;;;;;6.56;100.00;93999.78;4994532;28;20209;-77
2024/01/03 11:15:58;;;;;;;0.20;0.20;;;;;;;6.87;100.00;94021.88;4993098;28;20288;-76
2024/01/03 11:18:49;;;;;;;0.90;0.90;;;;;;;6.49;100.00;94020.97;4992952;28;20206;-76
2024/01/03 11:21:39;;;;;;;0.22;0.22;;;;;;;6.63;100.00;94016.22;4998455;28;20206;-77
2024/01/03 11:24:56;;;;;;;0.52;0.52;;;;;;;6.58;100.00;93997.53;5006792;28;20233;-76
2024/01/03 11:27:27;;;;;;;0.40;0.40;;;;;;;6.77;100.00;94012.25;4993529;28;20198;-78
2024/01/03 11:29:56;;;;;;;0.32;0.32;;;;;;;6.78;100.00;94003.06;4993574;28;20264;-76
2024/01/03 11:32:39;;;;;;;0.38;0.38;;;;;;;6.90;100.00;93988.94;4994240;28;20694;-76
2024/01/03 11:35:08;;;;;;;0.52;0.52;;;;;;;7.11;100.00;93995.22;5003407;28;20193;-77
2024/01/03 11:37:37;;;;;;;0.25;0.25;;;;;;;7.25;100.00;93983.47;5013245;28;20573;-77
2024/01/03 11:40:06;;;;;;;0.40;0.40;;;;;;;7.28;100.00;93974.72;5013607;28;20232;-75